ROMMA est une association bénévole à but non lucratif. Votre soutien est indispensable : ADHERER à ROMMA ou FAIRE un DON

Le Versoud - (38, Isère)

Vallée du Grésivaudan (220 m)   Longitude: 05° 51' 44" E   Latitude: 45° 13' 06" N Station partenaire n°6
 

Détail journalier du     <<     >>

Température Humidité Pression Vent Dir Rafale Dir. rafale Ensol.
Heure (°C) (%) (hPa) (km/h) (km/h) (min)
01:00 23.885102000---0
02:00 23.287102000---0
03:00 22.589102000---0
04:00 21.889102000---0
05:00 21.191102000---0
06:00 20.790102000---0
07:00 20.991102100---0
08:00 23.482102100---35
09:00 25.374102102SSO60
10:00 27.268102100---60
11:00 28.962102103ONO60
12:00 30.754102102ONO60
13:00 32.348102102ONO25
14:00 32.552102003ONO0
15:00 34.346102002ONO25
16:00 34.151101905NO60
17:00 35.149101905NO60
18:00 35.250101805NO60
19:00 35.351101803NO60
20:00 34.659101802NO60
21:00 30.865101902NO40
22:00 28.671101900---0
23:00 27.278102000---0
minuit 26.181102000---0

Graphique du 26-06-2019

 

Serveur OMMA